Shipu, China
Current Conditions -  °F | °C
As of 3:00 AM on Friday 28 Nov 2014 (Local Time) from ZSNB Reporting Station
Clear Clear  
Wind Chill: 63°   Ceiling: Unl
Heat Index: 63°   Visibility: 6mi
Dew Point: 55°   Wind: 4mph
Humidity: 77%   Direction: 20°NNE
Pressure: 30"   Gusts: NA
Location:  29.2°N, 121.95°E
Report Text: ZSNB 271900Z 02002MPS 350V060 CAVOK 17/13 Q1016 NOSIG
Loading
Personal Weather Stations






























Interactive Weather Map New forecast layout! Learn more

10-Day Weather Forecast

Advertisements
Track Severe Weather on mobile